This is the latest recevied weather packets stored in our database for station/object N5BTB-10. If no packets are shown the sender has not sent any weather packets the latest 10 day(s).
| Time | Temp. | Humidity | Pressure | Rain* | Wind** | Luminosity | Snow |
|---|---|---|---|---|---|---|---|
| 1777485605 | 18.33° C | 51% | - | 0 mm | - | - | - |
| 1777482005 | 16.11° C | 57% | - | 0 mm | - | - | - |
| 1777478405 | 13.33° C | 55% | - | 0 mm | - | - | - |
| 1777474805 | 7.78° C | 80% | - | 0 mm | - | - | - |
| 1777471205 | 6.67° C | 85% | - | 0 mm | - | - | - |
| 1777467605 | 5.56° C | 85% | - | 0 mm | - | - | - |
| 1777464005 | 6.67° C | 82% | - | 0 mm | - | - | - |
| 1777460406 | 6.67° C | 82% | - | 0 mm | - | - | - |
| 1777456806 | 6.67° C | 84% | - | 0 mm | - | - | - |
| 1777453206 | 6.11° C | 82% | - | 0 mm | - | - | - |
| 1777449606 | 7.78° C | 77% | - | 0 mm | - | - | - |
| 1777446006 | 8.89° C | 75% | - | 0 mm | - | - | - |
| 1777442406 | 9.44° C | 73% | - | 0 mm | - | - | - |
| 1777438806 | 8.89° C | 74% | - | 0 mm | - | - | - |
| 1777435206 | 10° C | 71% | - | 0 mm | - | - | - |
| 1777431606 | 10.56° C | 70% | - | 0 mm | - | - | - |
| 1777428006 | 12.22° C | 69% | - | 0 mm | - | - | - |
| 1777424406 | 12.78° C | 65% | - | 0 mm | - | - | - |
| 1777420806 | 12.78° C | 63% | - | 0 mm | - | - | - |
| 1777417206 | 13.33° C | 64% | - | 0 mm | - | - | - |
| 1777413606 | 13.89° C | 61% | - | 0 mm | - | - | - |
| 1777410006 | 13.33° C | 63% | - | 0 mm | - | - | - |
| 1777406405 | 12.78° C | 65% | - | 0 mm | - | - | - |
| 1777402805 | 11.67° C | 69% | - | 0 mm | - | - | - |
| 1777399205 | 12.78° C | 63% | - | 0 mm | - | - | - |
* Rain latest hour (hover to see other rain measurements)
** Current wind speed in m/s (hover to see current wind gust speed)